createdAt,value
2018-06-07T00:01:50.439Z,12.27
2018-06-07T00:04:18.960Z,13.27
2018-06-07T00:06:47.470Z,12.17
2018-06-07T00:09:16.319Z,12.37
2018-06-07T00:11:44.985Z,14.23
2018-06-07T00:14:13.501Z,12.17
2018-06-07T00:16:42.018Z,10.87
2018-06-07T00:19:10.511Z,11.10
2018-06-07T00:21:39.065Z,12.73
2018-06-07T00:24:07.548Z,11.93
2018-06-07T00:26:36.056Z,11.33
2018-06-07T00:29:04.892Z,12.83
2018-06-07T00:31:33.748Z,12.47
2018-06-07T00:34:02.227Z,12.40
2018-06-07T00:36:30.797Z,14.53
2018-06-07T00:38:59.680Z,12.43
2018-06-07T00:41:28.394Z,10.90
2018-06-07T00:43:57.021Z,11.40
2018-06-07T00:46:25.581Z,13.73
2018-06-07T00:48:54.279Z,13.13
2018-06-07T00:51:22.747Z,13.03
2018-06-07T00:53:51.281Z,13.93
2018-06-07T00:56:31.030Z,14.00
2018-06-07T00:58:59.583Z,13.20
2018-06-07T01:01:28.264Z,13.37
2018-06-07T01:03:57.106Z,13.00
2018-06-07T01:06:25.579Z,16.07
2018-06-07T01:08:54.382Z,11.77
2018-06-07T01:11:23.075Z,12.70
2018-06-07T01:13:51.606Z,13.00
2018-06-07T01:16:20.219Z,12.70
2018-06-07T01:18:48.758Z,16.70
2018-06-07T01:21:17.447Z,13.23
2018-06-07T01:23:46.077Z,13.90
2018-06-07T01:26:14.553Z,13.47
2018-06-07T01:28:43.087Z,12.37
2018-06-07T01:31:17.002Z,12.53
2018-06-07T01:33:48.703Z,14.63
2018-06-07T01:36:18.116Z,16.70
2018-06-07T01:38:51.826Z,15.07
2018-06-07T01:41:20.576Z,15.03
2018-06-07T01:43:49.061Z,18.07
2018-06-07T01:46:17.578Z,15.57
2018-06-07T01:48:46.160Z,12.13
2018-06-07T01:51:14.643Z,13.97
2018-06-07T01:53:43.429Z,15.10
2018-06-07T01:56:12.369Z,14.90
2018-06-07T01:58:40.941Z,13.60
2018-06-07T02:01:09.440Z,13.50
2018-06-07T02:03:38.088Z,14.33
2018-06-07T02:06:06.767Z,13.97
2018-06-07T02:08:35.568Z,14.90
2018-06-07T02:11:04.098Z,14.03
2018-06-07T02:13:32.610Z,12.27
2018-06-07T02:16:01.115Z,15.73
2018-06-07T02:18:29.814Z,12.87
2018-06-07T02:20:58.405Z,12.93
2018-06-07T02:23:26.878Z,16.40
2018-06-07T02:25:55.400Z,13.63
2018-06-07T02:28:23.996Z,12.97
2018-06-07T02:30:52.561Z,14.03
2018-06-07T02:33:21.073Z,14.10
2018-06-07T02:35:49.560Z,13.57
2018-06-07T02:38:18.249Z,13.80
2018-06-07T02:40:46.813Z,15.07
2018-06-07T02:43:15.313Z,12.57
2018-06-07T02:45:43.972Z,14.07
2018-06-07T02:48:12.516Z,13.60
2018-06-07T02:50:41.120Z,13.53
2018-06-07T02:53:09.655Z,18.70
2018-06-07T02:55:38.220Z,11.57
2018-06-07T02:58:07.126Z,18.93
2018-06-07T03:00:35.634Z,14.30
2018-06-07T03:03:04.139Z,13.43
2018-06-07T03:05:32.711Z,14.57
2018-06-07T03:08:01.579Z,15.00
2018-06-07T03:10:30.071Z,15.13
2018-06-07T03:12:58.914Z,13.23
2018-06-07T03:15:27.511Z,14.07
2018-06-07T03:17:56.001Z,15.37
2018-06-07T03:20:24.617Z,14.47
2018-06-07T03:22:53.099Z,17.17
2018-06-07T03:25:21.714Z,17.50
2018-06-07T03:27:50.316Z,14.77
2018-06-07T03:30:18.879Z,14.80
2018-06-07T03:32:47.376Z,21.83
2018-06-07T03:35:15.937Z,12.87
2018-06-07T03:37:44.434Z,16.90
2018-06-07T03:40:12.932Z,18.13
2018-06-07T03:42:41.414Z,14.63
2018-06-07T03:45:09.906Z,15.53
2018-06-07T03:47:38.405Z,16.80
2018-06-07T03:50:07.031Z,15.00
2018-06-07T03:52:35.674Z,15.37
2018-06-07T03:55:04.208Z,15.23
2018-06-07T03:57:32.755Z,13.93
2018-06-07T04:00:01.318Z,14.37
2018-06-07T04:02:29.864Z,15.60
2018-06-07T04:04:58.460Z,13.77
2018-06-07T04:07:27.047Z,15.97
2018-06-07T04:09:55.799Z,15.27
2018-06-07T04:12:24.560Z,15.93
2018-06-07T04:14:53.385Z,16.73
2018-06-07T04:17:21.931Z,13.53
2018-06-07T04:19:50.403Z,14.73
2018-06-07T04:22:18.896Z,15.33
2018-06-07T04:24:47.564Z,14.87
2018-06-07T04:27:16.039Z,14.50
2018-06-07T04:29:44.814Z,15.87
2018-06-07T04:32:13.380Z,15.90
2018-06-07T04:34:42.090Z,14.50
2018-06-07T04:37:10.755Z,13.23
2018-06-07T04:39:39.260Z,13.40
2018-06-07T04:42:07.889Z,14.77
2018-06-07T04:44:36.426Z,13.33
2018-06-07T04:47:05.304Z,14.80
2018-06-07T04:49:34.026Z,15.50
2018-06-07T04:52:02.655Z,15.17
2018-06-07T04:54:31.197Z,15.43
2018-06-07T04:56:59.718Z,13.90
2018-06-07T04:59:28.479Z,15.27
2018-06-07T05:01:57.261Z,16.03
2018-06-07T05:04:25.990Z,17.63
2018-06-07T05:06:54.502Z,16.03
2018-06-07T05:09:23.034Z,16.00
2018-06-07T05:11:53.783Z,15.33
2018-06-07T05:14:22.373Z,19.27
2018-06-07T05:16:51.063Z,19.57
2018-06-07T05:19:19.564Z,17.10
2018-06-07T05:21:48.124Z,15.33
2018-06-07T05:24:16.912Z,15.03
2018-06-07T05:26:45.535Z,18.17
2018-06-07T05:29:14.337Z,20.20
2018-06-07T05:31:43.057Z,15.30
2018-06-07T05:34:11.551Z,13.50
2018-06-07T05:36:40.147Z,13.47
2018-06-07T05:39:08.889Z,15.27
2018-06-07T05:41:37.681Z,15.60
2018-06-07T05:44:06.195Z,19.50
2018-06-07T05:46:34.739Z,20.00
2018-06-07T05:49:03.237Z,14.13
2018-06-07T05:51:31.459Z,15.57
2018-06-07T05:54:02.203Z,14.10
2018-06-07T05:56:30.805Z,12.77
2018-06-07T05:58:59.436Z,13.60
2018-06-07T06:01:28.048Z,13.07
2018-06-07T06:03:56.543Z,14.90
2018-06-07T06:06:25.056Z,14.70
2018-06-07T06:08:53.575Z,14.90
2018-06-07T06:11:22.135Z,15.50
2018-06-07T06:13:51.007Z,14.63
2018-06-07T06:16:19.187Z,16.77
2018-06-07T06:18:47.703Z,15.17
2018-06-07T06:21:16.264Z,20.17
2018-06-07T06:23:44.924Z,14.93
2018-06-07T06:26:13.322Z,13.93
2018-06-07T06:28:42.128Z,13.53
2018-06-07T06:31:10.878Z,15.33
2018-06-07T06:33:39.399Z,12.87
2018-06-07T06:36:08.318Z,18.30
2018-06-07T06:38:40.339Z,14.70
2018-06-07T06:41:08.948Z,14.83
2018-06-07T06:43:37.438Z,14.50
2018-06-07T06:46:06.324Z,13.30
2018-06-07T06:48:34.866Z,13.90
2018-06-07T06:51:03.426Z,15.63
2018-06-07T06:53:31.903Z,13.23
2018-06-07T06:56:00.611Z,15.67
2018-06-07T06:58:29.127Z,19.63
2018-06-07T07:00:57.828Z,13.20
2018-06-07T07:03:26.337Z,14.13
2018-06-07T07:05:55.388Z,13.03
2018-06-07T07:08:23.951Z,15.43
2018-06-07T07:10:52.684Z,14.17
2018-06-07T07:13:21.219Z,15.33
2018-06-07T07:15:50.293Z,15.70
2018-06-07T07:18:18.826Z,14.87
2018-06-07T07:20:47.344Z,14.13
2018-06-07T07:23:16.049Z,15.40
2018-06-07T07:25:44.811Z,15.23
2018-06-07T07:28:13.550Z,12.07
2018-06-07T07:30:42.216Z,11.87
2018-06-07T07:33:10.766Z,12.93
2018-06-07T07:35:39.325Z,14.57
2018-06-07T07:38:07.859Z,12.10
2018-06-07T07:40:36.401Z,16.60
2018-06-07T07:43:06.174Z,14.13
2018-06-07T07:45:34.864Z,15.80
2018-06-07T07:48:03.583Z,13.43
2018-06-07T07:50:32.315Z,11.63
2018-06-07T07:53:00.952Z,12.87
2018-06-07T07:55:29.485Z,17.47
2018-06-07T07:57:58.194Z,12.53
2018-06-07T08:00:26.729Z,14.93
2018-06-07T08:02:55.265Z,21.23
2018-06-07T08:05:23.999Z,14.57
2018-06-07T08:07:52.721Z,13.80
2018-06-07T08:10:21.257Z,12.17
2018-06-07T08:12:49.926Z,11.20
2018-06-07T08:15:18.681Z,13.63
2018-06-07T08:17:47.201Z,16.93
2018-06-07T08:20:16.191Z,14.87
2018-06-07T08:22:44.733Z,13.13
2018-06-07T08:25:13.284Z,12.97
2018-06-07T08:27:41.987Z,12.63
2018-06-07T08:30:10.525Z,11.57
2018-06-07T08:32:39.050Z,13.23
2018-06-07T08:35:07.557Z,12.30
2018-06-07T08:37:36.113Z,16.10
2018-06-07T08:40:04.814Z,14.17
2018-06-07T08:42:33.318Z,12.20
2018-06-07T08:45:01.879Z,14.43
2018-06-07T08:47:30.439Z,12.53
2018-06-07T08:49:59.097Z,12.05
2018-06-07T08:52:27.605Z,13.28
2018-06-07T08:54:58.185Z,11.83
2018-06-07T08:57:27.181Z,12.18
2018-06-07T08:59:56.219Z,12.53
2018-06-07T09:02:24.413Z,11.53
2018-06-07T09:04:53.048Z,14.00
2018-06-07T09:07:21.593Z,13.70
2018-06-07T09:09:50.375Z,12.85
2018-06-07T09:12:19.114Z,11.65
2018-06-07T09:14:47.803Z,14.98
2018-06-07T09:17:16.329Z,13.05
2018-06-07T09:19:45.054Z,13.62
2018-06-07T09:22:13.563Z,10.90
2018-06-07T09:24:41.764Z,12.23
2018-06-07T09:27:10.455Z,10.32
2018-06-07T09:29:39.223Z,10.78
2018-06-07T09:32:07.843Z,10.63
2018-06-07T09:34:36.518Z,9.93
2018-06-07T09:37:05.029Z,9.88
2018-06-07T09:39:34.068Z,10.45
2018-06-07T09:42:02.652Z,10.95
2018-06-07T09:44:31.305Z,9.78
2018-06-07T09:46:59.991Z,10.98
2018-06-07T09:49:28.603Z,11.00
2018-06-07T09:51:57.141Z,12.33
2018-06-07T09:54:25.877Z,10.90
2018-06-07T09:56:54.596Z,9.25
2018-06-07T09:59:23.126Z,8.88
2018-06-07T10:01:51.611Z,9.23
2018-06-07T10:04:20.174Z,13.60
2018-06-07T10:06:48.786Z,11.70
2018-06-07T10:09:17.485Z,12.28
2018-06-07T10:11:46.127Z,8.85
2018-06-07T10:14:14.776Z,8.13
2018-06-07T10:16:43.394Z,8.75
2018-06-07T10:19:11.973Z,11.95
2018-06-07T10:21:40.693Z,9.88
2018-06-07T10:24:09.343Z,10.28
2018-06-07T10:26:38.049Z,9.18
2018-06-07T10:29:06.674Z,10.80
2018-06-07T10:31:35.180Z,12.00
2018-06-07T10:34:03.689Z,12.15
2018-06-07T10:36:32.389Z,10.68
2018-06-07T10:39:01.829Z,10.20
2018-06-07T10:41:30.673Z,10.63
2018-06-07T10:43:59.198Z,11.08
2018-06-07T10:46:27.832Z,9.63
2018-06-07T10:48:56.456Z,11.70
2018-06-07T10:51:25.160Z,10.60
2018-06-07T10:53:53.937Z,10.32
2018-06-07T10:56:22.821Z,9.48
2018-06-07T10:58:51.555Z,9.28
2018-06-07T11:01:20.112Z,10.45
2018-06-07T11:03:48.822Z,8.88
2018-06-07T11:06:17.642Z,8.43
2018-06-07T11:08:46.076Z,7.12
2018-06-07T11:11:14.740Z,8.85
2018-06-07T11:13:43.276Z,9.90
2018-06-07T11:16:11.793Z,8.48
2018-06-07T11:18:40.575Z,7.80
2018-06-07T11:21:09.453Z,8.28
2018-06-07T11:23:38.062Z,7.00
2018-06-07T11:26:07.212Z,7.85
2018-06-07T11:28:35.759Z,6.87
2018-06-07T11:31:04.393Z,7.78
2018-06-07T11:33:32.578Z,6.58
2018-06-07T11:36:01.297Z,7.78
2018-06-07T11:38:29.849Z,8.00
2018-06-07T11:40:58.474Z,8.40
2018-06-07T11:43:27.080Z,6.90
2018-06-07T11:45:55.621Z,6.40
2018-06-07T11:48:24.146Z,7.17
2018-06-07T11:50:52.729Z,7.03
2018-06-07T11:53:21.418Z,6.62
2018-06-07T11:55:50.105Z,7.17
2018-06-07T11:58:18.995Z,7.70
2018-06-07T12:00:47.741Z,7.33
2018-06-07T12:03:16.480Z,11.65
2018-06-07T12:05:45.058Z,6.53
2018-06-07T12:08:13.893Z,7.08
2018-06-07T12:10:42.800Z,5.87
2018-06-07T12:13:11.337Z,6.45
2018-06-07T12:15:39.999Z,6.53
2018-06-07T12:18:08.659Z,6.42
2018-06-07T12:20:37.548Z,6.90
2018-06-07T12:23:06.296Z,7.65
2018-06-07T12:25:35.029Z,5.97
2018-06-07T12:28:03.543Z,6.20
2018-06-07T12:30:32.512Z,7.17
2018-06-07T12:33:01.190Z,6.90
2018-06-07T12:35:29.988Z,6.60
2018-06-07T12:37:58.594Z,6.50
2018-06-07T12:40:27.459Z,5.90
2018-06-07T12:42:55.945Z,8.23
2018-06-07T12:45:24.546Z,7.87
2018-06-07T12:47:53.433Z,6.97
2018-06-07T12:50:22.002Z,8.45
2018-06-07T12:52:50.637Z,7.72
2018-06-07T12:55:19.337Z,8.98
2018-06-07T12:57:48.072Z,7.78
2018-06-07T13:00:17.082Z,6.05
2018-06-07T13:02:45.544Z,6.37
2018-06-07T13:05:14.112Z,6.15
2018-06-07T13:07:42.961Z,9.08
2018-06-07T13:10:11.522Z,6.40
2018-06-07T13:12:40.294Z,7.35
2018-06-07T13:15:08.922Z,7.80
2018-06-07T13:17:37.602Z,6.40
2018-06-07T13:20:06.295Z,6.05
2018-06-07T13:22:34.876Z,6.17
2018-06-07T13:25:03.668Z,5.65
2018-06-07T13:27:32.275Z,7.75
2018-06-07T13:30:01.020Z,6.67
2018-06-07T13:32:29.552Z,8.20
2018-06-07T13:34:58.192Z,6.62
2018-06-07T13:37:26.800Z,7.20
2018-06-07T13:39:55.689Z,6.70
2018-06-07T13:42:24.387Z,9.63
2018-06-07T13:44:53.124Z,7.12
2018-06-07T13:47:21.894Z,7.60
2018-06-07T13:49:50.870Z,7.12
2018-06-07T13:52:19.811Z,7.90
2018-06-07T13:54:48.403Z,8.25
2018-06-07T13:57:17.015Z,7.03
2018-06-07T13:59:46.575Z,6.92
2018-06-07T14:02:15.130Z,7.55
2018-06-07T14:04:43.743Z,8.15
2018-06-07T14:07:12.499Z,14.73
2018-06-07T14:09:41.283Z,7.72
2018-06-07T14:12:10.147Z,13.00
2018-06-07T14:14:39.200Z,10.35
2018-06-07T14:17:07.965Z,8.15
2018-06-07T14:19:36.824Z,8.10
2018-06-07T14:22:05.457Z,9.40
2018-06-07T14:24:34.269Z,9.38
2018-06-07T14:27:03.025Z,7.92
2018-06-07T14:29:31.703Z,8.70
2018-06-07T14:32:00.471Z,9.15
2018-06-07T14:34:29.134Z,8.50
2018-06-07T14:36:57.719Z,8.08
2018-06-07T14:39:26.332Z,9.88
2018-06-07T14:41:55.089Z,8.23
2018-06-07T14:44:25.020Z,9.18
2018-06-07T14:46:53.559Z,9.13
2018-06-07T14:49:22.164Z,7.70
2018-06-07T14:51:50.939Z,9.43
2018-06-07T14:54:19.872Z,8.03
2018-06-07T14:56:48.387Z,7.92
2018-06-07T14:59:17.743Z,7.50
2018-06-07T15:01:46.720Z,9.88
2018-06-07T15:04:16.812Z,8.40
2018-06-07T15:06:45.583Z,8.33
2018-06-07T15:09:14.528Z,9.30
2018-06-07T15:11:43.131Z,8.95
2018-06-07T15:14:12.195Z,9.70
2018-06-07T15:16:40.961Z,11.05
2018-06-07T15:19:09.705Z,7.85
2018-06-07T15:21:38.665Z,8.63
2018-06-07T15:24:07.386Z,8.20
2018-06-07T15:26:36.223Z,14.85
2018-06-07T15:29:05.100Z,8.98
2018-06-07T15:31:33.831Z,10.32
2018-06-07T15:34:02.638Z,11.03
2018-06-07T15:36:31.313Z,13.43
2018-06-07T15:39:00.004Z,13.03
2018-06-07T15:41:28.860Z,12.75
2018-06-07T15:43:57.524Z,10.70
2018-06-07T15:46:26.143Z,10.03
2018-06-07T15:48:54.917Z,10.98
2018-06-07T15:51:23.640Z,9.10
2018-06-07T15:53:52.326Z,8.90
2018-06-07T15:56:21.226Z,8.83
2018-06-07T15:58:49.985Z,10.63
2018-06-07T16:01:18.842Z,8.93
2018-06-07T16:03:47.820Z,8.73
2018-06-07T16:06:16.553Z,12.05
2018-06-07T16:08:45.292Z,8.80
2018-06-07T16:11:14.297Z,9.98
2018-06-07T16:13:43.001Z,8.90
2018-06-07T16:16:11.823Z,9.90
2018-06-07T16:18:40.716Z,10.80
2018-06-07T16:21:09.530Z,9.03
2018-06-07T16:23:38.222Z,8.48
2018-06-07T16:26:06.807Z,11.05
2018-06-07T16:28:35.331Z,7.92
2018-06-07T16:31:03.987Z,8.55
2018-06-07T16:33:32.178Z,9.55
2018-06-07T16:36:01.286Z,7.73
2018-06-07T16:38:30.539Z,8.23
2018-06-07T16:40:59.261Z,10.03
2018-06-07T16:43:28.206Z,11.78
2018-06-07T16:45:56.939Z,9.83
2018-06-07T16:48:25.699Z,8.27
2018-06-07T16:50:54.415Z,10.47
2018-06-07T16:53:23.280Z,8.80
2018-06-07T16:55:52.109Z,10.60
2018-06-07T16:58:20.808Z,10.27
2018-06-07T17:00:49.741Z,7.50
2018-06-07T17:03:18.575Z,8.43
2018-06-07T17:05:47.242Z,8.53
2018-06-07T17:08:16.119Z,7.93
2018-06-07T17:10:44.911Z,11.47
2018-06-07T17:13:13.778Z,9.27
2018-06-07T17:15:42.441Z,8.20
2018-06-07T17:18:11.478Z,7.47
2018-06-07T17:20:40.766Z,9.47
2018-06-07T17:23:09.618Z,9.03
2018-06-07T17:25:38.417Z,8.30
2018-06-07T17:28:07.548Z,9.00
2018-06-07T17:30:36.422Z,8.23
2018-06-07T17:33:05.005Z,8.43
2018-06-07T17:35:33.848Z,9.33
2018-06-07T17:38:02.417Z,7.70
2018-06-07T17:40:31.061Z,10.33
2018-06-07T17:42:59.982Z,9.37
2018-06-07T17:45:28.839Z,9.97
2018-06-07T17:47:57.830Z,10.07
2018-06-07T17:50:26.876Z,8.63
2018-06-07T17:52:55.693Z,8.63
2018-06-07T17:55:24.373Z,7.70
2018-06-07T17:57:52.956Z,7.63
2018-06-07T18:00:21.877Z,8.90
2018-06-07T18:02:50.777Z,8.10
2018-06-07T18:05:19.562Z,8.37
2018-06-07T18:07:48.194Z,7.50
2018-06-07T18:10:17.160Z,7.10
2018-06-07T18:12:46.334Z,7.90
2018-06-07T18:15:15.215Z,7.93
2018-06-07T18:17:43.950Z,7.60
2018-06-07T18:20:13.079Z,7.17
2018-06-07T18:22:41.986Z,7.60
2018-06-07T18:25:10.576Z,7.53
2018-06-07T18:27:39.173Z,9.57
2018-06-07T18:30:07.916Z,7.60
2018-06-07T18:32:36.819Z,9.20
2018-06-07T18:35:05.780Z,8.07
2018-06-07T18:37:34.547Z,7.53
2018-06-07T18:40:03.376Z,8.17
2018-06-07T18:42:32.043Z,9.70
2018-06-07T18:45:00.971Z,9.43
2018-06-07T18:47:29.694Z,8.30
2018-06-07T18:49:58.152Z,8.47
2018-06-07T18:52:27.185Z,8.93
2018-06-07T18:54:55.753Z,9.30
2018-06-07T18:57:24.543Z,7.80
2018-06-07T18:59:53.393Z,8.00
2018-06-07T19:02:22.372Z,7.40
2018-06-07T19:04:51.609Z,8.80
2018-06-07T19:07:22.251Z,7.83
2018-06-07T19:09:56.348Z,8.40
2018-06-07T19:12:25.253Z,12.40
2018-06-07T19:14:59.249Z,8.50
2018-06-07T19:17:28.064Z,8.80
2018-06-07T19:20:02.426Z,8.77
2018-06-07T19:22:31.232Z,8.20
2018-06-07T19:25:05.379Z,8.03
2018-06-07T19:27:34.289Z,7.80
2018-06-07T19:30:03.246Z,7.67
2018-06-07T19:33:35.648Z,8.70
2018-06-07T19:36:04.443Z,10.20
2018-06-07T19:38:33.501Z,8.70
2018-06-07T19:41:07.549Z,9.97
2018-06-07T19:43:36.160Z,10.17
2018-06-07T19:46:05.443Z,9.30
2018-06-07T19:48:34.294Z,9.97
2018-06-07T19:51:03.326Z,12.43
2018-06-07T19:53:32.198Z,10.47
2018-06-07T19:56:00.991Z,10.60
2018-06-07T19:58:29.781Z,12.73
2018-06-07T20:00:58.303Z,12.47
2018-06-07T20:03:27.136Z,8.87
2018-06-07T20:05:55.274Z,11.50
2018-06-07T20:08:24.270Z,9.27
2018-06-07T20:10:52.823Z,9.77
2018-06-07T20:13:21.477Z,9.73
2018-06-07T20:15:50.194Z,9.60
2018-06-07T20:18:18.929Z,12.33
2018-06-07T20:20:47.782Z,9.40
2018-06-07T20:23:16.454Z,9.40
2018-06-07T20:25:45.223Z,9.93
2018-06-07T20:28:13.808Z,8.53
2018-06-07T20:30:42.694Z,9.40
2018-06-07T20:33:11.785Z,9.43
2018-06-07T20:35:40.525Z,9.57
2018-06-07T20:38:09.054Z,8.93
2018-06-07T20:40:37.827Z,10.50
2018-06-07T20:43:06.785Z,9.60
2018-06-07T20:45:35.360Z,9.73
2018-06-07T20:48:03.979Z,11.17
2018-06-07T20:50:32.577Z,9.13
2018-06-07T20:53:01.382Z,8.90
2018-06-07T20:55:29.984Z,8.30
2018-06-07T20:57:58.580Z,8.87
2018-06-07T21:00:27.383Z,9.70
2018-06-07T21:02:56.364Z,9.00
2018-06-07T21:05:24.969Z,10.13
2018-06-07T21:07:53.617Z,9.27
2018-06-07T21:10:22.485Z,9.30
2018-06-07T21:12:51.571Z,8.93
2018-06-07T21:15:20.488Z,9.47
2018-06-07T21:17:49.265Z,8.73
2018-06-07T21:20:18.241Z,12.27
2018-06-07T21:22:46.923Z,9.73
2018-06-07T21:25:15.641Z,8.83
2018-06-07T21:27:44.220Z,10.07
2018-06-07T21:30:12.762Z,13.10
2018-06-07T21:32:41.856Z,9.93
2018-06-07T21:35:10.412Z,11.07
2018-06-07T21:37:39.150Z,8.77
2018-06-07T21:40:07.869Z,9.17
2018-06-07T21:42:36.392Z,11.87
2018-06-07T21:45:05.261Z,10.93
2018-06-07T21:47:33.840Z,9.80
2018-06-07T21:50:02.441Z,9.13
2018-06-07T21:52:31.086Z,11.63
2018-06-07T21:54:59.869Z,10.30
2018-06-07T21:57:28.804Z,11.73
2018-06-07T21:59:57.600Z,11.80
2018-06-07T22:02:26.209Z,10.03
2018-06-07T22:04:54.782Z,11.13
2018-06-07T22:07:23.352Z,11.17
2018-06-07T22:09:52.304Z,9.90
2018-06-07T22:12:21.017Z,10.93
2018-06-07T22:14:49.823Z,8.70
2018-06-07T22:17:18.429Z,10.40
2018-06-07T22:19:47.206Z,10.13
2018-06-07T22:22:15.740Z,10.93
2018-06-07T22:24:44.445Z,11.27
2018-06-07T22:27:12.950Z,11.10
2018-06-07T22:29:41.448Z,9.60
2018-06-07T22:32:10.108Z,9.77
2018-06-07T22:34:38.890Z,9.70
2018-06-07T22:37:07.938Z,10.53
2018-06-07T22:39:36.459Z,12.23
2018-06-07T22:42:04.630Z,11.03
2018-06-07T22:44:33.151Z,10.07
2018-06-07T22:47:02.021Z,10.80
2018-06-07T22:49:30.818Z,10.60
2018-06-07T22:51:59.324Z,12.10
2018-06-07T22:54:27.863Z,11.90
2018-06-07T22:56:57.347Z,11.73
2018-06-07T22:59:25.885Z,10.40
2018-06-07T23:01:54.423Z,11.00
2018-06-07T23:04:22.991Z,11.10
2018-06-07T23:06:51.689Z,12.83
2018-06-07T23:09:20.613Z,10.93
2018-06-07T23:11:49.223Z,10.57
2018-06-07T23:14:18.097Z,10.97
2018-06-07T23:16:46.693Z,11.20
2018-06-07T23:19:15.181Z,11.70
2018-06-07T23:21:43.726Z,16.60
2018-06-07T23:24:12.248Z,11.60
2018-06-07T23:26:40.915Z,12.17
2018-06-07T23:29:09.572Z,10.73
2018-06-07T23:31:38.805Z,11.13
2018-06-07T23:34:07.409Z,10.73
2018-06-07T23:36:36.062Z,12.00
2018-06-07T23:39:07.900Z,11.47
2018-06-07T23:41:37.014Z,13.20
2018-06-07T23:44:05.524Z,11.30
2018-06-07T23:46:34.053Z,11.53
2018-06-07T23:49:02.552Z,11.33
2018-06-07T23:51:31.205Z,11.13
2018-06-07T23:53:59.677Z,11.37
2018-06-07T23:56:28.158Z,10.53
2018-06-07T23:58:56.711Z,13.77
